createdAt,value
2022-11-17T00:02:29.531Z,1.40
2022-11-17T00:04:58.746Z,1.42
2022-11-17T00:07:25.632Z,1.60
2022-11-17T00:09:52.501Z,1.30
2022-11-17T00:12:40.934Z,1.95
2022-11-17T00:15:16.384Z,1.50
2022-11-17T00:17:43.264Z,1.60
2022-11-17T00:20:29.696Z,1.60
2022-11-17T00:22:56.495Z,2.40
2022-11-17T00:25:23.536Z,2.40
2022-11-17T00:27:50.393Z,2.40
2022-11-17T00:30:35.806Z,2.28
2022-11-17T00:33:22.706Z,2.35
2022-11-17T00:35:54.403Z,2.40
2022-11-17T00:38:21.584Z,2.60
2022-11-17T00:40:48.425Z,2.50
2022-11-17T00:43:15.205Z,2.28
2022-11-17T00:45:42.082Z,2.72
2022-11-17T00:48:09.026Z,2.60
2022-11-17T00:50:35.851Z,2.83
2022-11-17T00:53:02.591Z,2.53
2022-11-17T00:55:29.372Z,1.92
2022-11-17T00:57:56.182Z,1.95
2022-11-17T01:00:28.974Z,2.40
2022-11-17T01:02:55.756Z,3.03
2022-11-17T01:05:22.415Z,2.92
2022-11-17T01:07:49.072Z,3.20
2022-11-17T01:10:15.938Z,3.10
2022-11-17T01:12:42.601Z,3.10
2022-11-17T01:15:09.914Z,2.35
2022-11-17T01:17:36.648Z,2.70
2022-11-17T01:20:03.765Z,3.30
2022-11-17T01:22:30.464Z,3.28
2022-11-17T01:24:57.189Z,3.10
2022-11-17T01:27:23.932Z,2.63
2022-11-17T01:29:50.645Z,2.95
2022-11-17T01:32:17.357Z,3.35
2022-11-17T01:34:44.113Z,2.70
2022-11-17T01:37:19.589Z,3.27
2022-11-17T01:39:46.846Z,2.75
2022-11-17T01:42:16.345Z,2.80
2022-11-17T01:44:52.001Z,3.28
2022-11-17T01:47:24.600Z,3.50
2022-11-17T01:49:56.129Z,3.30
2022-11-17T01:52:24.413Z,3.35
2022-11-17T01:54:52.532Z,3.35
2022-11-17T01:57:24.647Z,3.60
2022-11-17T01:59:57.918Z,3.42
2022-11-17T02:02:27.744Z,3.30
2022-11-17T02:05:20.759Z,3.10
2022-11-17T02:08:02.071Z,2.78
2022-11-17T02:27:08.247Z,2.67
2022-11-17T02:30:08.863Z,2.42
2022-11-17T02:32:54.279Z,2.63
2022-11-17T02:35:37.714Z,2.60
2022-11-17T02:38:14.549Z,2.30
2022-11-17T02:40:47.274Z,2.90
2022-11-17T02:43:37.759Z,3.03
2022-11-17T02:50:11.348Z,2.30
2022-11-17T02:52:38.425Z,2.20
2022-11-17T02:55:09.181Z,2.22
2022-11-17T02:57:38.147Z,2.22
2022-11-17T03:00:14.306Z,2.03
2022-11-17T03:02:56.073Z,1.90
2022-11-17T03:05:25.657Z,1.88
2022-11-17T03:07:58.399Z,2.15
2022-11-17T03:10:49.919Z,1.65
2022-11-17T03:13:25.124Z,1.70
2022-11-17T03:28:01.745Z,1.05
2022-11-17T03:30:56.105Z,1.23
2022-11-17T03:41:22.627Z,1.00
2022-11-17T03:48:40.984Z,1.30
2022-11-17T03:54:49.094Z,1.30
2022-11-17T03:57:33.721Z,1.10
2022-11-17T04:00:27.233Z,0.95
2022-11-17T04:03:47.229Z,0.77
2022-11-17T04:06:31.304Z,1.10
2022-11-17T04:09:03.776Z,1.20
2022-11-17T04:21:52.339Z,1.20
2022-11-17T04:34:43.849Z,1.50
2022-11-17T05:19:26.773Z,0.68
2022-11-17T05:25:58.368Z,0.77
2022-11-17T05:32:00.625Z,0.90
2022-11-17T05:34:27.903Z,1.00
2022-11-17T05:36:54.868Z,0.85
2022-11-17T05:39:29.292Z,0.93
2022-11-17T05:57:40.909Z,1.95
2022-11-17T06:17:02.438Z,0.90
2022-11-17T06:19:34.708Z,1.10
2022-11-17T06:22:12.341Z,1.02
2022-11-17T06:24:40.702Z,1.17
2022-11-17T06:27:22.674Z,1.05
2022-11-17T06:29:50.005Z,0.77
2022-11-17T06:32:18.756Z,0.90
2022-11-17T06:34:54.843Z,1.10
2022-11-17T06:37:24.998Z,1.13
2022-11-17T06:39:52.203Z,1.00
2022-11-17T06:42:18.933Z,1.20
2022-11-17T06:44:45.623Z,0.93
2022-11-17T06:47:12.293Z,0.90
2022-11-17T06:49:39.142Z,0.77
2022-11-17T06:52:05.801Z,0.70
2022-11-17T06:54:32.513Z,0.80
2022-11-17T06:56:59.330Z,0.73
2022-11-17T06:59:26.118Z,0.80
2022-11-17T07:01:52.961Z,1.13
2022-11-17T07:04:20.020Z,1.08
2022-11-17T07:06:46.771Z,0.67
2022-11-17T07:09:13.486Z,0.70
2022-11-17T07:11:40.190Z,0.90
2022-11-17T07:14:06.956Z,0.60
2022-11-17T07:16:33.760Z,0.70
2022-11-17T07:19:03.629Z,0.90
2022-11-17T07:21:30.832Z,0.50
2022-11-17T07:23:57.654Z,0.70
2022-11-17T07:26:24.550Z,0.70
2022-11-17T07:28:51.302Z,0.60
2022-11-17T07:31:18.067Z,0.50
2022-11-17T07:33:44.860Z,0.60
2022-11-17T07:36:14.554Z,0.70
2022-11-17T07:38:41.611Z,0.60
2022-11-17T07:41:13.393Z,0.68
2022-11-17T07:43:40.200Z,0.80
2022-11-17T07:46:10.368Z,0.82
2022-11-17T07:48:37.604Z,0.70
2022-11-17T07:51:05.802Z,0.75
2022-11-17T07:53:34.953Z,0.90
2022-11-17T07:56:06.312Z,1.07
2022-11-17T07:58:33.936Z,1.00
2022-11-17T08:01:05.730Z,1.00
2022-11-17T08:03:32.703Z,1.00
2022-11-17T08:06:06.806Z,1.10
2022-11-17T08:08:34.509Z,1.60
2022-11-17T08:11:06.266Z,1.67
2022-11-17T08:13:33.806Z,1.30
2022-11-17T08:16:00.907Z,1.40
2022-11-17T08:18:29.097Z,1.00
2022-11-17T08:21:08.674Z,1.10
2022-11-17T08:23:35.945Z,0.88
2022-11-17T08:26:03.626Z,1.00
2022-11-17T08:28:31.014Z,1.10
2022-11-17T08:31:00.534Z,1.10
2022-11-17T08:33:27.455Z,0.90
2022-11-17T08:36:00.808Z,1.27
2022-11-17T08:38:29.374Z,1.20
2022-11-17T08:41:02.861Z,0.80
2022-11-17T08:43:29.949Z,1.00
2022-11-17T08:45:57.162Z,1.20
2022-11-17T08:48:24.063Z,1.20
2022-11-17T08:50:51.454Z,0.93
2022-11-17T08:53:20.087Z,0.90
2022-11-17T08:55:47.154Z,0.95
2022-11-17T08:58:13.939Z,0.90
2022-11-17T09:00:41.669Z,0.90
2022-11-17T09:03:10.631Z,0.70
2022-11-17T09:05:40.116Z,0.70
2022-11-17T09:08:38.035Z,0.70
2022-11-17T09:10:55.163Z,0.97
2022-11-17T09:13:21.995Z,0.70
2022-11-17T09:15:48.755Z,0.80
2022-11-17T09:18:15.607Z,1.05
2022-11-17T09:20:45.827Z,1.05
2022-11-17T09:23:13.058Z,1.27
2022-11-17T09:25:39.947Z,1.10
2022-11-17T09:28:06.887Z,1.08
2022-11-17T09:30:33.602Z,0.82
2022-11-17T09:33:00.574Z,0.80
2022-11-17T09:35:27.303Z,0.87
2022-11-17T09:37:59.726Z,0.80
2022-11-17T09:40:26.629Z,0.90
2022-11-17T09:42:53.776Z,1.00
2022-11-17T09:45:34.144Z,1.02
2022-11-17T09:48:40.280Z,0.90
2022-11-17T09:51:05.668Z,1.00
2022-11-17T09:53:48.785Z,1.10
2022-11-17T09:56:16.332Z,1.20
2022-11-17T09:58:53.510Z,1.10
2022-11-17T10:05:01.555Z,1.15
2022-11-17T10:07:31.593Z,1.80
2022-11-17T10:10:00.748Z,1.50
2022-11-17T10:12:34.779Z,1.40
2022-11-17T10:15:20.575Z,1.20
2022-11-17T10:17:47.394Z,1.30
2022-11-17T10:20:16.657Z,1.40
2022-11-17T10:22:44.024Z,1.20
2022-11-17T10:25:22.407Z,1.27
2022-11-17T10:27:54.006Z,1.50
2022-11-17T10:30:23.555Z,1.70
2022-11-17T10:32:52.804Z,1.23
2022-11-17T10:35:27.438Z,1.70
2022-11-17T10:37:56.021Z,1.25
2022-11-17T10:40:32.070Z,1.33
2022-11-17T10:43:14.171Z,1.27
2022-11-17T10:45:53.238Z,1.10
2022-11-17T10:48:27.994Z,1.10
2022-11-17T10:51:09.349Z,0.90
2022-11-17T10:53:46.139Z,1.13
2022-11-17T10:56:21.492Z,1.08
2022-11-17T10:59:13.872Z,0.90
2022-11-17T11:01:46.207Z,1.02
2022-11-17T11:04:33.714Z,1.00
2022-11-17T11:07:07.909Z,1.10
2022-11-17T11:09:40.004Z,0.80
2022-11-17T11:12:14.627Z,0.75
2022-11-17T11:14:48.954Z,1.05
2022-11-17T11:17:17.572Z,1.00
2022-11-17T11:19:52.593Z,0.90
2022-11-17T11:22:38.081Z,0.95
2022-11-17T11:25:29.052Z,1.40
2022-11-17T11:28:24.026Z,1.30
2022-11-17T11:34:40.459Z,1.20
2022-11-17T11:37:13.607Z,1.20
2022-11-17T11:40:23.058Z,1.33
2022-11-17T11:43:11.103Z,1.20
2022-11-17T11:45:45.323Z,0.90
2022-11-17T11:48:26.588Z,0.90
2022-11-17T11:51:05.230Z,1.10
2022-11-17T11:53:35.440Z,1.00
2022-11-17T11:56:11.272Z,1.30
2022-11-17T11:58:44.362Z,1.10
2022-11-17T12:01:12.809Z,1.10
2022-11-17T12:03:56.262Z,0.90
2022-11-17T12:06:57.761Z,1.20
2022-11-17T12:09:53.918Z,1.00
2022-11-17T12:12:32.618Z,1.00
2022-11-17T12:15:37.011Z,1.10
2022-11-17T12:18:28.852Z,0.93
2022-11-17T12:21:06.181Z,1.00
2022-11-17T12:23:35.336Z,1.10
2022-11-17T12:26:03.056Z,1.13
2022-11-17T12:28:36.146Z,0.97
2022-11-17T12:31:24.444Z,1.08
2022-11-17T12:34:30.541Z,1.33
2022-11-17T12:37:42.957Z,1.30
2022-11-17T12:40:58.453Z,1.27
2022-11-17T12:44:19.483Z,1.30
2022-11-17T12:46:48.246Z,1.10
2022-11-17T12:49:27.374Z,0.90
2022-11-17T12:52:05.917Z,0.80
2022-11-17T12:54:47.855Z,1.00
2022-11-17T12:57:18.982Z,0.90
2022-11-17T13:00:05.613Z,1.30
2022-11-17T13:02:53.409Z,1.00
2022-11-17T13:05:23.345Z,1.20
2022-11-17T13:07:50.291Z,1.30
2022-11-17T13:10:42.171Z,1.30
2022-11-17T13:13:25.356Z,1.05
2022-11-17T13:15:54.162Z,1.52
2022-11-17T13:18:36.533Z,1.13
2022-11-17T13:21:04.894Z,1.27
2022-11-17T13:23:33.627Z,1.13
2022-11-17T13:26:21.194Z,1.30
2022-11-17T13:28:49.302Z,1.10
2022-11-17T13:31:21.091Z,1.13
2022-11-17T13:34:12.947Z,1.73
2022-11-17T13:37:00.321Z,1.00
2022-11-17T13:39:28.074Z,0.82
2022-11-17T13:41:56.582Z,1.00
2022-11-17T13:44:25.506Z,0.80
2022-11-17T13:46:52.260Z,0.70
2022-11-17T13:49:34.728Z,0.80
2022-11-17T13:52:04.004Z,0.95
2022-11-17T13:54:31.360Z,0.90
2022-11-17T13:57:05.479Z,0.90
2022-11-17T13:59:35.926Z,0.85
2022-11-17T14:02:20.647Z,0.93
2022-11-17T14:05:15.280Z,0.88
2022-11-17T14:07:43.464Z,0.90
2022-11-17T14:10:22.591Z,1.00
2022-11-17T14:12:53.852Z,0.90
2022-11-17T14:15:26.609Z,0.90
2022-11-17T14:18:17.444Z,0.90
2022-11-17T14:20:44.228Z,0.70
2022-11-17T14:23:10.960Z,0.90
2022-11-17T14:25:43.296Z,0.77
2022-11-17T14:28:16.592Z,0.97
2022-11-17T14:30:43.695Z,0.70
2022-11-17T14:33:13.591Z,0.63
2022-11-17T14:35:41.122Z,0.70
2022-11-17T14:38:16.042Z,0.68
2022-11-17T14:40:42.829Z,0.80
2022-11-17T14:43:09.648Z,0.68
2022-11-17T14:45:36.727Z,0.80
2022-11-17T14:48:08.263Z,0.98
2022-11-17T14:50:35.000Z,0.73
2022-11-17T14:53:01.970Z,0.90
2022-11-17T14:55:28.738Z,0.70
2022-11-17T14:57:55.610Z,0.80
2022-11-17T15:00:22.520Z,0.70
2022-11-17T15:02:49.383Z,0.60
2022-11-17T15:05:16.219Z,0.90
2022-11-17T15:07:43.478Z,0.70
2022-11-17T15:10:10.826Z,0.68
2022-11-17T15:12:37.940Z,0.90
2022-11-17T15:15:05.496Z,0.93
2022-11-17T15:17:33.138Z,0.73
2022-11-17T15:19:59.948Z,0.85
2022-11-17T15:22:26.788Z,0.90
2022-11-17T15:24:53.573Z,0.88
2022-11-17T15:27:20.385Z,0.90
2022-11-17T15:29:47.237Z,1.00
2022-11-17T15:32:14.035Z,1.00
2022-11-17T15:34:40.832Z,1.00
2022-11-17T15:37:07.841Z,0.80
2022-11-17T15:39:34.913Z,1.20
2022-11-17T15:42:01.719Z,0.90
2022-11-17T15:44:29.406Z,0.90
2022-11-17T15:46:56.160Z,0.82
2022-11-17T15:49:22.913Z,0.73
2022-11-17T15:51:49.681Z,0.93
2022-11-17T15:54:20.416Z,0.80
2022-11-17T15:56:47.900Z,0.80
2022-11-17T15:59:15.205Z,0.90
2022-11-17T16:01:42.510Z,0.88
2022-11-17T16:04:11.219Z,1.20
2022-11-17T16:06:41.392Z,1.00
2022-11-17T16:09:09.510Z,0.90
2022-11-17T16:11:37.188Z,0.90
2022-11-17T16:14:04.947Z,1.30
2022-11-17T16:16:34.853Z,0.93
2022-11-17T16:19:02.423Z,1.00
2022-11-17T16:21:29.320Z,1.00
2022-11-17T16:23:57.837Z,1.10
2022-11-17T16:26:27.179Z,1.08
2022-11-17T16:29:02.189Z,1.42
2022-11-17T16:31:31.652Z,0.90
2022-11-17T16:34:04.544Z,0.90
2022-11-17T16:36:36.772Z,0.90
2022-11-17T16:39:20.965Z,1.08
2022-11-17T16:41:50.144Z,1.02
2022-11-17T16:44:18.582Z,1.10
2022-11-17T16:46:48.017Z,1.02
2022-11-17T16:49:17.154Z,0.90
2022-11-17T16:51:48.896Z,0.80
2022-11-17T16:54:16.761Z,0.93
2022-11-17T16:56:43.900Z,1.10
2022-11-17T16:59:12.268Z,0.85
2022-11-17T17:01:39.263Z,1.13
2022-11-17T17:04:07.999Z,1.00
2022-11-17T17:06:37.298Z,0.95
2022-11-17T17:09:07.208Z,1.00
2022-11-17T17:11:35.835Z,0.95
2022-11-17T17:14:05.175Z,0.80
2022-11-17T17:16:34.074Z,1.00
2022-11-17T17:19:04.172Z,0.90
2022-11-17T17:21:31.496Z,1.03
2022-11-17T17:23:58.783Z,1.02
2022-11-17T17:26:28.626Z,0.93
2022-11-17T17:29:03.417Z,1.10
2022-11-17T17:31:35.160Z,0.90
2022-11-17T17:34:03.034Z,0.97
2022-11-17T17:36:30.651Z,1.30
2022-11-17T17:39:01.708Z,1.00
2022-11-17T17:41:34.345Z,1.10
2022-11-17T17:44:14.072Z,0.98
2022-11-17T17:46:42.887Z,1.30
2022-11-17T17:49:10.191Z,0.90
2022-11-17T17:51:40.223Z,1.02
2022-11-17T17:54:07.957Z,1.20
2022-11-17T17:56:35.374Z,1.00
2022-11-17T17:59:03.503Z,1.00
2022-11-17T18:01:35.140Z,1.17
2022-11-17T18:04:15.869Z,0.90
2022-11-17T18:06:47.162Z,0.90
2022-11-17T18:09:15.709Z,1.00
2022-11-17T18:11:50.085Z,0.87
2022-11-17T18:14:21.388Z,1.00
2022-11-17T18:17:17.500Z,0.90
2022-11-17T18:19:46.031Z,0.90
2022-11-17T18:22:13.496Z,1.20
2022-11-17T18:24:49.959Z,1.00
2022-11-17T18:27:17.010Z,1.10
2022-11-17T18:29:44.045Z,1.30
2022-11-17T18:32:18.014Z,1.00
2022-11-17T18:34:45.008Z,0.88
2022-11-17T18:37:11.958Z,1.00
2022-11-17T18:39:38.871Z,1.17
2022-11-17T18:42:05.979Z,0.90
2022-11-17T18:44:33.020Z,0.90
2022-11-17T18:47:03.083Z,0.93
2022-11-17T18:49:31.182Z,1.17
2022-11-17T18:51:58.232Z,1.10
2022-11-17T18:54:25.194Z,1.10
2022-11-17T18:56:52.092Z,1.10
2022-11-17T18:59:19.404Z,1.00
2022-11-17T19:02:08.685Z,1.00
2022-11-17T19:04:35.759Z,1.00
2022-11-17T19:07:02.724Z,0.95
2022-11-17T19:09:29.868Z,1.17
2022-11-17T19:11:56.719Z,1.20
2022-11-17T19:14:23.720Z,1.40
2022-11-17T19:16:50.726Z,1.48
2022-11-17T19:19:17.998Z,1.20
2022-11-17T19:21:45.177Z,1.30
2022-11-17T19:24:12.646Z,1.00
2022-11-17T19:26:40.007Z,1.23
2022-11-17T19:29:15.555Z,1.38
2022-11-17T19:31:44.237Z,1.30
2022-11-17T19:34:11.474Z,1.38
2022-11-17T19:36:38.539Z,1.42
2022-11-17T19:39:05.721Z,1.70
2022-11-17T19:41:34.920Z,1.20
2022-11-17T19:44:06.413Z,1.30
2022-11-17T19:46:34.186Z,1.20
2022-11-17T19:49:00.973Z,1.30
2022-11-17T19:51:33.223Z,1.33
2022-11-17T19:54:06.462Z,1.10
2022-11-17T19:56:33.627Z,1.33
2022-11-17T19:59:00.391Z,1.30
2022-11-17T20:01:28.980Z,1.25
2022-11-17T20:03:57.391Z,1.27
2022-11-17T20:06:29.352Z,1.30
2022-11-17T20:09:00.122Z,1.48
2022-11-17T20:11:28.141Z,1.65
2022-11-17T20:14:04.862Z,1.25
2022-11-17T20:16:32.190Z,1.57
2022-11-17T20:19:01.859Z,1.33
2022-11-17T20:21:29.970Z,1.58
2022-11-17T20:23:59.116Z,1.20
2022-11-17T20:26:32.019Z,1.38
2022-11-17T20:28:59.471Z,1.50
2022-11-17T20:31:29.698Z,1.27
2022-11-17T20:33:59.555Z,1.30
2022-11-17T20:36:27.241Z,1.23
2022-11-17T20:38:59.337Z,1.40
2022-11-17T20:41:26.636Z,1.27
2022-11-17T20:43:55.298Z,1.40
2022-11-17T20:46:23.068Z,1.48
2022-11-17T20:48:50.307Z,1.00
2022-11-17T20:51:19.663Z,1.67
2022-11-17T20:53:46.736Z,1.40
2022-11-17T20:56:16.368Z,1.48
2022-11-17T20:58:43.548Z,1.60
2022-11-17T21:01:16.003Z,1.58
2022-11-17T21:03:43.323Z,1.65
2022-11-17T21:06:10.843Z,1.70
2022-11-17T21:08:39.478Z,1.63
2022-11-17T21:11:09.046Z,1.55
2022-11-17T21:13:37.405Z,1.75
2022-11-17T21:16:08.473Z,2.15
2022-11-17T21:18:36.431Z,2.10
2022-11-17T21:21:08.472Z,1.85
2022-11-17T21:23:36.629Z,2.03
2022-11-17T21:26:25.750Z,2.03
2022-11-17T21:28:52.476Z,2.10
2022-11-17T21:31:21.261Z,1.80
2022-11-17T21:33:51.399Z,1.88
2022-11-17T21:36:18.449Z,2.20
2022-11-17T21:38:46.744Z,2.13
2022-11-17T21:41:16.071Z,2.53
2022-11-17T21:43:44.631Z,2.40
2022-11-17T21:46:17.018Z,2.40
2022-11-17T21:48:44.179Z,1.80
2022-11-17T21:51:19.568Z,2.22
2022-11-17T21:53:47.285Z,2.30
2022-11-17T21:56:14.209Z,2.17
2022-11-17T21:58:41.341Z,2.25
2022-11-17T22:01:14.172Z,2.33
2022-11-17T22:03:42.544Z,2.00
2022-11-17T22:06:14.543Z,2.08
2022-11-17T22:08:42.848Z,2.03
2022-11-17T22:11:34.937Z,1.83
2022-11-17T22:14:15.093Z,2.20
2022-11-17T22:16:45.708Z,2.30
2022-11-17T22:19:14.053Z,2.30
2022-11-17T22:21:42.310Z,2.23
2022-11-17T22:24:10.947Z,2.30
2022-11-17T22:26:40.917Z,2.50
2022-11-17T22:29:11.466Z,2.25
2022-11-17T22:31:38.465Z,2.78
2022-11-17T22:34:05.337Z,2.43
2022-11-17T22:36:32.347Z,2.38
2022-11-17T22:38:59.153Z,2.35
2022-11-17T22:41:26.466Z,2.50
2022-11-17T22:43:55.095Z,2.75
2022-11-17T22:46:24.231Z,2.37
2022-11-17T22:48:51.189Z,2.38
2022-11-17T22:51:38.591Z,2.50
2022-11-17T22:54:06.640Z,2.40
2022-11-17T22:56:34.279Z,2.65
2022-11-17T22:59:01.080Z,2.60
2022-11-17T23:01:27.828Z,2.78
2022-11-17T23:03:54.756Z,2.92
2022-11-17T23:06:22.831Z,3.08
2022-11-17T23:08:50.230Z,3.33
2022-11-17T23:14:05.570Z,3.40
2022-11-17T23:16:33.092Z,3.25
2022-11-17T23:19:00.086Z,3.80
2022-11-17T23:21:26.837Z,3.53
2022-11-17T23:23:53.589Z,3.30
2022-11-17T23:26:20.888Z,3.65
2022-11-17T23:28:47.779Z,3.80
2022-11-17T23:31:16.696Z,3.55
2022-11-17T23:33:46.071Z,3.65
2022-11-17T23:36:18.470Z,3.40
2022-11-17T23:38:46.338Z,3.15
2022-11-17T23:41:15.870Z,3.58
2022-11-17T23:43:43.204Z,2.97
2022-11-17T23:46:15.806Z,3.30
2022-11-17T23:48:43.340Z,3.40
2022-11-17T23:51:24.761Z,3.13
2022-11-17T23:53:51.988Z,3.13
2022-11-17T23:56:22.752Z,3.25
2022-11-17T23:58:51.656Z,3.30
